sensor_id;sensor_type;location;lat;lon;timestamp;temperature;humidity
13711;DHT22;6927;51.256;9.410;2023-07-24T00:00:20;18.00;99.90
13711;DHT22;6927;51.256;9.410;2023-07-24T00:02:46;18.00;99.90
13711;DHT22;6927;51.256;9.410;2023-07-24T00:05:11;18.00;99.90
13711;DHT22;6927;51.256;9.410;2023-07-24T00:07:37;17.90;99.90
13711;DHT22;6927;51.256;9.410;2023-07-24T00:10:03;17.80;99.90
13711;DHT22;6927;51.256;9.410;2023-07-24T00:12:29;17.80;99.90
13711;DHT22;6927;51.256;9.410;2023-07-24T00:14:55;17.80;99.90
13711;DHT22;6927;51.256;9.410;2023-07-24T00:17:20;17.80;99.90
13711;DHT22;6927;51.256;9.410;2023-07-24T00:19:46;17.80;99.90
13711;DHT22;6927;51.256;9.410;2023-07-24T00:22:12;17.70;99.90
13711;DHT22;6927;51.256;9.410;2023-07-24T00:24:37;17.70;99.90
13711;DHT22;6927;51.256;9.410;2023-07-24T00:27:03;17.70;99.90
13711;DHT22;6927;51.256;9.410;2023-07-24T00:29:28;17.60;99.90
13711;DHT22;6927;51.256;9.410;2023-07-24T00:31:54;17.50;99.90
13711;DHT22;6927;51.256;9.410;2023-07-24T00:34:20;17.50;99.90
13711;DHT22;6927;51.256;9.410;2023-07-24T00:36:45;17.40;99.90
13711;DHT22;6927;51.256;9.410;2023-07-24T00:39:11;17.40;99.90
13711;DHT22;6927;51.256;9.410;2023-07-24T00:41:37;17.30;99.90
13711;DHT22;6927;51.256;9.410;2023-07-24T00:44:02;17.30;99.90
13711;DHT22;6927;51.256;9.410;2023-07-24T00:46:28;17.20;99.90
13711;DHT22;6927;51.256;9.410;2023-07-24T00:49:00;17.10;99.90
13711;DHT22;6927;51.256;9.410;2023-07-24T00:51:27;17.00;99.90
13711;DHT22;6927;51.256;9.410;2023-07-24T00:53:57;17.00;99.90
13711;DHT22;6927;51.256;9.410;2023-07-24T00:56:25;17.00;99.90
13711;DHT22;6927;51.256;9.410;2023-07-24T00:58:51;16.90;99.90
13711;DHT22;6927;51.256;9.410;2023-07-24T01:01:17;16.90;99.90
13711;DHT22;6927;51.256;9.410;2023-07-24T01:03:44;16.90;99.90
13711;DHT22;6927;51.256;9.410;2023-07-24T01:06:10;16.80;99.90
13711;DHT22;6927;51.256;9.410;2023-07-24T01:08:36;16.80;99.90
13711;DHT22;6927;51.256;9.410;2023-07-24T01:11:08;16.80;99.90
13711;DHT22;6927;51.256;9.410;2023-07-24T01:13:40;16.80;99.90
13711;DHT22;6927;51.256;9.410;2023-07-24T01:16:14;16.70;99.90
13711;DHT22;6927;51.256;9.410;2023-07-24T01:18:40;16.80;99.90
13711;DHT22;6927;51.256;9.410;2023-07-24T01:21:09;16.80;99.90
13711;DHT22;6927;51.256;9.410;2023-07-24T01:23:55;16.70;99.90
13711;DHT22;6927;51.256;9.410;2023-07-24T01:26:25;16.70;99.90
13711;DHT22;6927;51.256;9.410;2023-07-24T01:28:50;16.70;99.90
13711;DHT22;6927;51.256;9.410;2023-07-24T01:31:16;16.70;99.90
13711;DHT22;6927;51.256;9.410;2023-07-24T01:33:43;16.80;99.90
13711;DHT22;6927;51.256;9.410;2023-07-24T01:36:09;16.70;99.90
13711;DHT22;6927;51.256;9.410;2023-07-24T01:38:36;16.70;99.90
13711;DHT22;6927;51.256;9.410;2023-07-24T01:41:03;16.70;99.90
13711;DHT22;6927;51.256;9.410;2023-07-24T01:43:29;16.60;99.90
13711;DHT22;6927;51.256;9.410;2023-07-24T01:45:56;16.60;99.90
13711;DHT22;6927;51.256;9.410;2023-07-24T01:48:21;16.50;99.90
13711;DHT22;6927;51.256;9.410;2023-07-24T01:50:47;16.50;99.90
13711;DHT22;6927;51.256;9.410;2023-07-24T01:53:13;16.50;99.90
13711;DHT22;6927;51.256;9.410;2023-07-24T01:55:38;16.40;99.90
13711;DHT22;6927;51.256;9.410;2023-07-24T01:58:04;16.40;99.90
13711;DHT22;6927;51.256;9.410;2023-07-24T02:00:30;16.30;99.90
13711;DHT22;6927;51.256;9.410;2023-07-24T02:02:55;16.40;99.90
13711;DHT22;6927;51.256;9.410;2023-07-24T02:05:21;16.30;99.90
13711;DHT22;6927;51.256;9.410;2023-07-24T02:07:47;16.20;99.90
13711;DHT22;6927;51.256;9.410;2023-07-24T02:10:13;16.20;99.90
13711;DHT22;6927;51.256;9.410;2023-07-24T02:12:38;16.20;99.90
13711;DHT22;6927;51.256;9.410;2023-07-24T02:15:04;16.20;99.90
13711;DHT22;6927;51.256;9.410;2023-07-24T02:17:30;16.20;99.90
13711;DHT22;6927;51.256;9.410;2023-07-24T02:19:55;16.10;99.90
13711;DHT22;6927;51.256;9.410;2023-07-24T02:22:21;16.10;99.90
13711;DHT22;6927;51.256;9.410;2023-07-24T02:24:46;16.00;99.90
13711;DHT22;6927;51.256;9.410;2023-07-24T02:27:13;16.00;99.90
13711;DHT22;6927;51.256;9.410;2023-07-24T02:29:39;15.90;99.90
13711;DHT22;6927;51.256;9.410;2023-07-24T02:32:05;15.90;99.90
13711;DHT22;6927;51.256;9.410;2023-07-24T02:34:31;15.90;99.90
13711;DHT22;6927;51.256;9.410;2023-07-24T02:36:56;15.80;99.90
13711;DHT22;6927;51.256;9.410;2023-07-24T02:39:22;15.80;99.90
13711;DHT22;6927;51.256;9.410;2023-07-24T02:41:48;15.80;99.90
13711;DHT22;6927;51.256;9.410;2023-07-24T02:44:14;15.70;99.90
13711;DHT22;6927;51.256;9.410;2023-07-24T02:46:40;15.70;99.90
13711;DHT22;6927;51.256;9.410;2023-07-24T02:49:05;15.70;99.90
13711;DHT22;6927;51.256;9.410;2023-07-24T02:51:31;15.70;99.90
13711;DHT22;6927;51.256;9.410;2023-07-24T02:53:57;15.70;99.90
13711;DHT22;6927;51.256;9.410;2023-07-24T02:56:22;15.70;99.90
13711;DHT22;6927;51.256;9.410;2023-07-24T02:58:48;15.70;99.90
13711;DHT22;6927;51.256;9.410;2023-07-24T03:01:13;15.70;99.90
13711;DHT22;6927;51.256;9.410;2023-07-24T03:03:42;15.80;99.90
13711;DHT22;6927;51.256;9.410;2023-07-24T03:06:08;15.80;99.90
13711;DHT22;6927;51.256;9.410;2023-07-24T03:08:33;15.80;99.90
13711;DHT22;6927;51.256;9.410;2023-07-24T03:10:59;15.80;99.90
13711;DHT22;6927;51.256;9.410;2023-07-24T03:13:25;15.80;99.90
13711;DHT22;6927;51.256;9.410;2023-07-24T03:15:55;15.70;99.90
13711;DHT22;6927;51.256;9.410;2023-07-24T03:18:21;15.70;99.90
13711;DHT22;6927;51.256;9.410;2023-07-24T03:20:46;15.70;99.90
13711;DHT22;6927;51.256;9.410;2023-07-24T03:23:12;15.70;99.90
13711;DHT22;6927;51.256;9.410;2023-07-24T03:25:38;15.70;99.90
13711;DHT22;6927;51.256;9.410;2023-07-24T03:28:03;15.70;99.90
13711;DHT22;6927;51.256;9.410;2023-07-24T03:30:29;15.70;99.90
13711;DHT22;6927;51.256;9.410;2023-07-24T03:32:55;15.60;99.90
13711;DHT22;6927;51.256;9.410;2023-07-24T03:35:20;15.70;99.90
13711;DHT22;6927;51.256;9.410;2023-07-24T03:37:46;15.60;99.90
13711;DHT22;6927;51.256;9.410;2023-07-24T03:40:12;15.60;99.90
13711;DHT22;6927;51.256;9.410;2023-07-24T03:42:37;15.60;99.90
13711;DHT22;6927;51.256;9.410;2023-07-24T03:45:03;15.60;99.90
13711;DHT22;6927;51.256;9.410;2023-07-24T03:47:29;15.60;99.90
13711;DHT22;6927;51.256;9.410;2023-07-24T03:49:54;15.50;99.90
13711;DHT22;6927;51.256;9.410;2023-07-24T03:52:20;15.50;99.90
13711;DHT22;6927;51.256;9.410;2023-07-24T03:54:46;15.60;99.90
13711;DHT22;6927;51.256;9.410;2023-07-24T03:57:12;15.60;99.90
13711;DHT22;6927;51.256;9.410;2023-07-24T03:59:37;15.60;99.90
13711;DHT22;6927;51.256;9.410;2023-07-24T04:02:03;15.60;99.90
13711;DHT22;6927;51.256;9.410;2023-07-24T04:04:29;15.70;99.90
13711;DHT22;6927;51.256;9.410;2023-07-24T04:06:55;15.70;99.90
13711;DHT22;6927;51.256;9.410;2023-07-24T04:09:20;15.80;99.90
13711;DHT22;6927;51.256;9.410;2023-07-24T04:11:46;15.80;99.90
13711;DHT22;6927;51.256;9.410;2023-07-24T04:14:11;15.90;99.90
13711;DHT22;6927;51.256;9.410;2023-07-24T04:16:37;16.00;99.90
13711;DHT22;6927;51.256;9.410;2023-07-24T04:19:03;16.00;99.90
13711;DHT22;6927;51.256;9.410;2023-07-24T04:21:28;16.20;99.90
13711;DHT22;6927;51.256;9.410;2023-07-24T04:23:54;16.20;99.90
13711;DHT22;6927;51.256;9.410;2023-07-24T04:26:19;16.30;99.90
13711;DHT22;6927;51.256;9.410;2023-07-24T04:28:45;16.40;99.90
13711;DHT22;6927;51.256;9.410;2023-07-24T04:31:10;16.50;99.90
13711;DHT22;6927;51.256;9.410;2023-07-24T04:33:36;16.60;99.90
13711;DHT22;6927;51.256;9.410;2023-07-24T04:36:02;16.80;99.90
13711;DHT22;6927;51.256;9.410;2023-07-24T04:38:27;16.80;99.90
13711;DHT22;6927;51.256;9.410;2023-07-24T04:40:53;16.80;99.90
13711;DHT22;6927;51.256;9.410;2023-07-24T04:43:18;17.00;99.90
13711;DHT22;6927;51.256;9.410;2023-07-24T04:45:44;17.00;99.90
13711;DHT22;6927;51.256;9.410;2023-07-24T04:48:10;17.00;99.90
13711;DHT22;6927;51.256;9.410;2023-07-24T04:50:35;17.00;99.90
13711;DHT22;6927;51.256;9.410;2023-07-24T04:53:01;17.10;99.90
13711;DHT22;6927;51.256;9.410;2023-07-24T04:55:27;17.20;99.90
13711;DHT22;6927;51.256;9.410;2023-07-24T04:57:52;17.20;99.90
13711;DHT22;6927;51.256;9.410;2023-07-24T05:00:18;17.20;99.90
13711;DHT22;6927;51.256;9.410;2023-07-24T05:02:43;17.20;99.90
13711;DHT22;6927;51.256;9.410;2023-07-24T05:05:09;17.20;99.90
13711;DHT22;6927;51.256;9.410;2023-07-24T05:07:35;17.40;99.90
13711;DHT22;6927;51.256;9.410;2023-07-24T05:10:00;17.50;99.90
13711;DHT22;6927;51.256;9.410;2023-07-24T05:12:26;17.70;99.90
13711;DHT22;6927;51.256;9.410;2023-07-24T05:14:51;17.80;99.90
13711;DHT22;6927;51.256;9.410;2023-07-24T05:17:17;17.90;99.90
13711;DHT22;6927;51.256;9.410;2023-07-24T05:19:43;18.00;99.90
13711;DHT22;6927;51.256;9.410;2023-07-24T05:22:08;18.10;99.90
13711;DHT22;6927;51.256;9.410;2023-07-24T05:24:36;18.20;99.90
13711;DHT22;6927;51.256;9.410;2023-07-24T05:27:03;18.30;99.90
13711;DHT22;6927;51.256;9.410;2023-07-24T05:29:29;18.40;99.90
13711;DHT22;6927;51.256;9.410;2023-07-24T05:31:55;18.50;99.90
13711;DHT22;6927;51.256;9.410;2023-07-24T05:34:21;18.60;99.90
13711;DHT22;6927;51.256;9.410;2023-07-24T05:36:46;18.60;99.90
13711;DHT22;6927;51.256;9.410;2023-07-24T05:39:12;18.60;99.90
13711;DHT22;6927;51.256;9.410;2023-07-24T05:41:38;18.70;99.90
13711;DHT22;6927;51.256;9.410;2023-07-24T05:44:03;18.70;99.90
13711;DHT22;6927;51.256;9.410;2023-07-24T05:46:29;18.60;99.90
13711;DHT22;6927;51.256;9.410;2023-07-24T05:48:55;18.60;99.90
13711;DHT22;6927;51.256;9.410;2023-07-24T05:51:22;18.70;99.90
13711;DHT22;6927;51.256;9.410;2023-07-24T05:53:47;18.70;99.90
13711;DHT22;6927;51.256;9.410;2023-07-24T05:56:13;18.80;99.90
13711;DHT22;6927;51.256;9.410;2023-07-24T05:58:39;19.00;99.90
13711;DHT22;6927;51.256;9.410;2023-07-24T06:01:04;19.10;99.90
13711;DHT22;6927;51.256;9.410;2023-07-24T06:03:30;19.20;99.90
13711;DHT22;6927;51.256;9.410;2023-07-24T06:05:56;19.30;99.90
13711;DHT22;6927;51.256;9.410;2023-07-24T06:08:22;19.30;99.90
13711;DHT22;6927;51.256;9.410;2023-07-24T06:10:49;19.40;99.90
13711;DHT22;6927;51.256;9.410;2023-07-24T06:13:15;19.60;99.90
13711;DHT22;6927;51.256;9.410;2023-07-24T06:15:41;19.80;99.90
13711;DHT22;6927;51.256;9.410;2023-07-24T06:18:07;19.90;99.90
13711;DHT22;6927;51.256;9.410;2023-07-24T06:20:32;20.10;99.90
13711;DHT22;6927;51.256;9.410;2023-07-24T06:22:58;20.20;99.90
13711;DHT22;6927;51.256;9.410;2023-07-24T06:25:23;20.30;99.90
13711;DHT22;6927;51.256;9.410;2023-07-24T06:27:49;20.40;99.90
13711;DHT22;6927;51.256;9.410;2023-07-24T06:30:15;20.50;99.90
13711;DHT22;6927;51.256;9.410;2023-07-24T06:32:40;20.50;99.90
13711;DHT22;6927;51.256;9.410;2023-07-24T06:35:06;20.60;99.90
13711;DHT22;6927;51.256;9.410;2023-07-24T06:37:32;21.00;99.90
13711;DHT22;6927;51.256;9.410;2023-07-24T06:39:57;21.50;99.90
13711;DHT22;6927;51.256;9.410;2023-07-24T06:42:23;21.90;99.90
13711;DHT22;6927;51.256;9.410;2023-07-24T06:44:48;22.40;99.90
13711;DHT22;6927;51.256;9.410;2023-07-24T06:47:14;22.80;99.90
13711;DHT22;6927;51.256;9.410;2023-07-24T06:49:39;23.00;99.90
13711;DHT22;6927;51.256;9.410;2023-07-24T06:52:05;23.40;99.90
13711;DHT22;6927;51.256;9.410;2023-07-24T06:54:31;23.80;99.90
13711;DHT22;6927;51.256;9.410;2023-07-24T06:56:56;24.10;99.90
13711;DHT22;6927;51.256;9.410;2023-07-24T06:59:23;24.30;99.90
13711;DHT22;6927;51.256;9.410;2023-07-24T07:01:48;24.50;99.90
13711;DHT22;6927;51.256;9.410;2023-07-24T07:04:14;24.80;99.90
13711;DHT22;6927;51.256;9.410;2023-07-24T07:06:39;25.10;99.90
13711;DHT22;6927;51.256;9.410;2023-07-24T07:09:05;25.40;99.90
13711;DHT22;6927;51.256;9.410;2023-07-24T07:11:31;25.60;99.90
13711;DHT22;6927;51.256;9.410;2023-07-24T07:13:57;25.30;99.90
13711;DHT22;6927;51.256;9.410;2023-07-24T07:16:22;24.60;99.90
13711;DHT22;6927;51.256;9.410;2023-07-24T07:18:48;24.40;99.90
13711;DHT22;6927;51.256;9.410;2023-07-24T07:21:13;25.00;99.90
13711;DHT22;6927;51.256;9.410;2023-07-24T07:23:39;25.50;99.90
13711;DHT22;6927;51.256;9.410;2023-07-24T07:26:05;26.20;99.90
13711;DHT22;6927;51.256;9.410;2023-07-24T07:28:30;26.80;99.90
13711;DHT22;6927;51.256;9.410;2023-07-24T07:30:56;27.30;99.90
13711;DHT22;6927;51.256;9.410;2023-07-24T07:33:22;27.50;99.90
13711;DHT22;6927;51.256;9.410;2023-07-24T07:35:47;27.80;99.90
13711;DHT22;6927;51.256;9.410;2023-07-24T07:38:28;27.40;99.90
13711;DHT22;6927;51.256;9.410;2023-07-24T07:41:06;27.40;99.90
13711;DHT22;6927;51.256;9.410;2023-07-24T07:43:32;27.30;99.90
13711;DHT22;6927;51.256;9.410;2023-07-24T07:45:58;27.20;99.90
13711;DHT22;6927;51.256;9.410;2023-07-24T07:48:32;27.40;99.90
13711;DHT22;6927;51.256;9.410;2023-07-24T07:51:10;27.20;99.90
13711;DHT22;6927;51.256;9.410;2023-07-24T07:53:36;27.80;99.90
13711;DHT22;6927;51.256;9.410;2023-07-24T07:56:01;27.70;99.90
13711;DHT22;6927;51.256;9.410;2023-07-24T07:58:27;27.90;99.90
13711;DHT22;6927;51.256;9.410;2023-07-24T08:01:06;27.40;99.90
13711;DHT22;6927;51.256;9.410;2023-07-24T08:03:57;27.30;99.90
13711;DHT22;6927;51.256;9.410;2023-07-24T08:06:23;28.00;99.90
13711;DHT22;6927;51.256;9.410;2023-07-24T08:09:00;28.80;99.90
13711;DHT22;6927;51.256;9.410;2023-07-24T08:11:29;29.30;99.90
13711;DHT22;6927;51.256;9.410;2023-07-24T08:13:54;28.90;99.90
13711;DHT22;6927;51.256;9.410;2023-07-24T08:16:23;28.10;99.90
13711;DHT22;6927;51.256;9.410;2023-07-24T08:18:50;27.60;99.90
13711;DHT22;6927;51.256;9.410;2023-07-24T08:21:16;27.60;99.90
13711;DHT22;6927;51.256;9.410;2023-07-24T08:23:43;27.70;99.90
13711;DHT22;6927;51.256;9.410;2023-07-24T08:26:12;28.10;99.90
13711;DHT22;6927;51.256;9.410;2023-07-24T08:28:44;28.50;99.90
13711;DHT22;6927;51.256;9.410;2023-07-24T08:31:32;28.60;99.90
13711;DHT22;6927;51.256;9.410;2023-07-24T08:34:00;28.40;99.90
13711;DHT22;6927;51.256;9.410;2023-07-24T08:36:25;28.20;99.90
13711;DHT22;6927;51.256;9.410;2023-07-24T08:38:51;28.20;99.90
13711;DHT22;6927;51.256;9.410;2023-07-24T08:41:17;28.30;99.90
13711;DHT22;6927;51.256;9.410;2023-07-24T08:43:43;28.60;99.90
13711;DHT22;6927;51.256;9.410;2023-07-24T08:46:09;28.70;99.90
13711;DHT22;6927;51.256;9.410;2023-07-24T08:48:38;28.70;99.90
13711;DHT22;6927;51.256;9.410;2023-07-24T08:51:12;28.30;99.90
13711;DHT22;6927;51.256;9.410;2023-07-24T08:54:02;28.10;99.90
13711;DHT22;6927;51.256;9.410;2023-07-24T08:56:40;27.60;99.90
13711;DHT22;6927;51.256;9.410;2023-07-24T08:59:07;26.60;99.90
13711;DHT22;6927;51.256;9.410;2023-07-24T09:01:35;26.60;99.90
13711;DHT22;6927;51.256;9.410;2023-07-24T09:04:01;26.80;99.90
13711;DHT22;6927;51.256;9.410;2023-07-24T09:06:27;26.60;99.90
13711;DHT22;6927;51.256;9.410;2023-07-24T09:08:54;26.70;99.90
13711;DHT22;6927;51.256;9.410;2023-07-24T09:11:29;26.50;99.90
13711;DHT22;6927;51.256;9.410;2023-07-24T09:14:10;26.80;99.90
13711;DHT22;6927;51.256;9.410;2023-07-24T09:17:11;27.20;99.90
13711;DHT22;6927;51.256;9.410;2023-07-24T09:19:38;28.00;99.90
13711;DHT22;6927;51.256;9.410;2023-07-24T09:22:11;28.40;99.90
13711;DHT22;6927;51.256;9.410;2023-07-24T09:24:56;28.80;99.90
13711;DHT22;6927;51.256;9.410;2023-07-24T09:27:28;28.40;99.90
13711;DHT22;6927;51.256;9.410;2023-07-24T09:29:57;27.80;99.90
13711;DHT22;6927;51.256;9.410;2023-07-24T09:32:25;26.90;99.90
13711;DHT22;6927;51.256;9.410;2023-07-24T09:34:51;26.50;99.90
13711;DHT22;6927;51.256;9.410;2023-07-24T09:37:33;25.90;99.90
13711;DHT22;6927;51.256;9.410;2023-07-24T09:40:00;25.50;99.90
13711;DHT22;6927;51.256;9.410;2023-07-24T09:42:32;25.40;99.90
13711;DHT22;6927;51.256;9.410;2023-07-24T09:44:58;25.70;99.90
13711;DHT22;6927;51.256;9.410;2023-07-24T09:47:24;26.10;99.90
13711;DHT22;6927;51.256;9.410;2023-07-24T09:49:51;26.50;99.90
13711;DHT22;6927;51.256;9.410;2023-07-24T09:52:19;26.80;99.90
13711;DHT22;6927;51.256;9.410;2023-07-24T09:55:08;26.70;99.90
13711;DHT22;6927;51.256;9.410;2023-07-24T09:57:36;26.50;99.90
13711;DHT22;6927;51.256;9.410;2023-07-24T10:00:02;26.40;99.90
13711;DHT22;6927;51.256;9.410;2023-07-24T10:02:28;26.20;99.90
13711;DHT22;6927;51.256;9.410;2023-07-24T10:04:55;26.30;99.90
13711;DHT22;6927;51.256;9.410;2023-07-24T10:07:22;27.20;99.90
13711;DHT22;6927;51.256;9.410;2023-07-24T10:09:48;27.20;99.90
13711;DHT22;6927;51.256;9.410;2023-07-24T10:12:17;27.50;99.90
13711;DHT22;6927;51.256;9.410;2023-07-24T10:14:43;28.90;99.90
13711;DHT22;6927;51.256;9.410;2023-07-24T10:17:09;29.40;99.90
13711;DHT22;6927;51.256;9.410;2023-07-24T10:19:36;29.30;99.90
13711;DHT22;6927;51.256;9.410;2023-07-24T10:22:03;29.20;99.90
13711;DHT22;6927;51.256;9.410;2023-07-24T10:24:29;28.60;99.90
13711;DHT22;6927;51.256;9.410;2023-07-24T10:26:56;27.60;99.90
13711;DHT22;6927;51.256;9.410;2023-07-24T10:29:24;27.20;99.90
13711;DHT22;6927;51.256;9.410;2023-07-24T10:31:54;28.30;99.90
13711;DHT22;6927;51.256;9.410;2023-07-24T10:34:20;29.00;99.90
13711;DHT22;6927;51.256;9.410;2023-07-24T10:36:46;30.50;99.90
13711;DHT22;6927;51.256;9.410;2023-07-24T10:39:15;31.20;99.90
13711;DHT22;6927;51.256;9.410;2023-07-24T10:41:42;30.70;99.90
13711;DHT22;6927;51.256;9.410;2023-07-24T10:44:10;29.90;99.90
13711;DHT22;6927;51.256;9.410;2023-07-24T10:46:42;28.80;99.90
13711;DHT22;6927;51.256;9.410;2023-07-24T10:49:08;28.30;99.90
13711;DHT22;6927;51.256;9.410;2023-07-24T10:51:34;28.00;99.90
13711;DHT22;6927;51.256;9.410;2023-07-24T10:54:03;27.90;99.90
13711;DHT22;6927;51.256;9.410;2023-07-24T10:56:29;28.20;99.90
13711;DHT22;6927;51.256;9.410;2023-07-24T10:58:55;28.00;99.90
13711;DHT22;6927;51.256;9.410;2023-07-24T11:01:21;27.80;99.90
13711;DHT22;6927;51.256;9.410;2023-07-24T11:03:49;27.80;99.90
13711;DHT22;6927;51.256;9.410;2023-07-24T11:06:17;27.60;99.90
13711;DHT22;6927;51.256;9.410;2023-07-24T11:08:54;27.50;99.90
13711;DHT22;6927;51.256;9.410;2023-07-24T11:13:55;28.00;99.90
13711;DHT22;6927;51.256;9.410;2023-07-24T11:16:20;27.60;99.90
13711;DHT22;6927;51.256;9.410;2023-07-24T11:18:51;27.10;99.90
13711;DHT22;6927;51.256;9.410;2023-07-24T11:21:23;26.80;99.90
13711;DHT22;6927;51.256;9.410;2023-07-24T11:23:54;26.40;99.90
13711;DHT22;6927;51.256;9.410;2023-07-24T11:30:11;26.40;99.90
13711;DHT22;6927;51.256;9.410;2023-07-24T11:32:43;27.10;99.90
13711;DHT22;6927;51.256;9.410;2023-07-24T11:35:12;27.60;99.90
13711;DHT22;6927;51.256;9.410;2023-07-24T11:37:37;27.80;99.90
13711;DHT22;6927;51.256;9.410;2023-07-24T11:40:04;28.00;99.90
13711;DHT22;6927;51.256;9.410;2023-07-24T11:42:37;28.20;99.90
13711;DHT22;6927;51.256;9.410;2023-07-24T11:45:04;28.20;99.90
13711;DHT22;6927;51.256;9.410;2023-07-24T11:47:45;28.00;99.90
13711;DHT22;6927;51.256;9.410;2023-07-24T11:50:24;27.90;99.90
13711;DHT22;6927;51.256;9.410;2023-07-24T11:52:52;27.90;99.90
13711;DHT22;6927;51.256;9.410;2023-07-24T11:55:23;27.60;99.90
13711;DHT22;6927;51.256;9.410;2023-07-24T11:57:59;27.20;99.90
13711;DHT22;6927;51.256;9.410;2023-07-24T12:00:25;27.10;99.90
13711;DHT22;6927;51.256;9.410;2023-07-24T12:02:52;27.10;99.90
13711;DHT22;6927;51.256;9.410;2023-07-24T12:05:17;26.80;99.90
13711;DHT22;6927;51.256;9.410;2023-07-24T12:07:44;26.40;99.90
13711;DHT22;6927;51.256;9.410;2023-07-24T12:10:13;26.10;99.90
13711;DHT22;6927;51.256;9.410;2023-07-24T12:12:50;25.90;99.90
13711;DHT22;6927;51.256;9.410;2023-07-24T12:15:16;25.70;99.90
13711;DHT22;6927;51.256;9.410;2023-07-24T12:17:43;25.70;99.90
13711;DHT22;6927;51.256;9.410;2023-07-24T12:20:09;25.80;99.90
13711;DHT22;6927;51.256;9.410;2023-07-24T12:22:36;26.10;99.90
13711;DHT22;6927;51.256;9.410;2023-07-24T12:25:03;26.40;99.90
13711;DHT22;6927;51.256;9.410;2023-07-24T12:27:29;26.50;99.90
13711;DHT22;6927;51.256;9.410;2023-07-24T12:29:55;26.90;99.90
13711;DHT22;6927;51.256;9.410;2023-07-24T12:32:20;27.00;99.90
13711;DHT22;6927;51.256;9.410;2023-07-24T12:34:48;26.80;99.90
13711;DHT22;6927;51.256;9.410;2023-07-24T12:37:14;26.70;99.90
13711;DHT22;6927;51.256;9.410;2023-07-24T12:39:39;26.60;99.90
13711;DHT22;6927;51.256;9.410;2023-07-24T12:42:05;26.50;99.90
13711;DHT22;6927;51.256;9.410;2023-07-24T12:44:32;26.60;99.90
13711;DHT22;6927;51.256;9.410;2023-07-24T12:46:57;26.50;99.90
13711;DHT22;6927;51.256;9.410;2023-07-24T12:49:23;26.20;99.90
13711;DHT22;6927;51.256;9.410;2023-07-24T12:51:49;25.90;99.90
13711;DHT22;6927;51.256;9.410;2023-07-24T12:54:14;25.70;99.90
13711;DHT22;6927;51.256;9.410;2023-07-24T12:56:40;25.60;99.90
13711;DHT22;6927;51.256;9.410;2023-07-24T12:59:06;25.50;99.90
13711;DHT22;6927;51.256;9.410;2023-07-24T13:01:32;25.50;99.90
13711;DHT22;6927;51.256;9.410;2023-07-24T13:03:57;25.50;99.90
13711;DHT22;6927;51.256;9.410;2023-07-24T13:06:24;25.60;99.90
13711;DHT22;6927;51.256;9.410;2023-07-24T13:08:49;25.70;99.90
13711;DHT22;6927;51.256;9.410;2023-07-24T13:11:15;26.00;99.90
13711;DHT22;6927;51.256;9.410;2023-07-24T13:13:41;26.10;99.90
13711;DHT22;6927;51.256;9.410;2023-07-24T13:16:07;26.20;99.90
13711;DHT22;6927;51.256;9.410;2023-07-24T13:18:32;26.10;99.90
13711;DHT22;6927;51.256;9.410;2023-07-24T13:20:58;26.00;99.90
13711;DHT22;6927;51.256;9.410;2023-07-24T13:23:24;25.80;99.90
13711;DHT22;6927;51.256;9.410;2023-07-24T13:25:51;25.80;99.90
13711;DHT22;6927;51.256;9.410;2023-07-24T13:28:17;25.80;99.90
13711;DHT22;6927;51.256;9.410;2023-07-24T13:30:42;26.00;99.90
13711;DHT22;6927;51.256;9.410;2023-07-24T13:33:08;25.90;99.90
13711;DHT22;6927;51.256;9.410;2023-07-24T13:35:33;25.90;99.90
13711;DHT22;6927;51.256;9.410;2023-07-24T13:37:59;25.80;99.90
13711;DHT22;6927;51.256;9.410;2023-07-24T13:40:25;25.80;99.90
13711;DHT22;6927;51.256;9.410;2023-07-24T13:42:51;25.80;99.90
13711;DHT22;6927;51.256;9.410;2023-07-24T13:45:17;25.70;99.90
13711;DHT22;6927;51.256;9.410;2023-07-24T13:47:42;25.70;99.90
13711;DHT22;6927;51.256;9.410;2023-07-24T13:50:08;25.60;99.90
13711;DHT22;6927;51.256;9.410;2023-07-24T13:52:34;25.60;99.90
13711;DHT22;6927;51.256;9.410;2023-07-24T13:55:00;25.70;99.90
13711;DHT22;6927;51.256;9.410;2023-07-24T13:57:26;26.10;99.90
13711;DHT22;6927;51.256;9.410;2023-07-24T13:59:51;26.60;99.90
13711;DHT22;6927;51.256;9.410;2023-07-24T14:02:17;27.10;99.90
13711;DHT22;6927;51.256;9.410;2023-07-24T14:04:44;27.40;99.90
13711;DHT22;6927;51.256;9.410;2023-07-24T14:07:09;27.50;99.90
13711;DHT22;6927;51.256;9.410;2023-07-24T14:09:35;27.50;99.90
13711;DHT22;6927;51.256;9.410;2023-07-24T14:12:01;27.30;99.90
13711;DHT22;6927;51.256;9.410;2023-07-24T14:14:26;27.10;99.90
13711;DHT22;6927;51.256;9.410;2023-07-24T14:16:52;26.80;99.90
13711;DHT22;6927;51.256;9.410;2023-07-24T14:19:18;26.50;99.90
13711;DHT22;6927;51.256;9.410;2023-07-24T14:21:44;26.20;99.90
13711;DHT22;6927;51.256;9.410;2023-07-24T14:24:10;25.90;99.90
13711;DHT22;6927;51.256;9.410;2023-07-24T14:26:35;25.70;99.90
13711;DHT22;6927;51.256;9.410;2023-07-24T14:29:04;25.60;99.90
13711;DHT22;6927;51.256;9.410;2023-07-24T14:31:30;25.70;99.90
13711;DHT22;6927;51.256;9.410;2023-07-24T14:33:55;25.70;99.90
13711;DHT22;6927;51.256;9.410;2023-07-24T14:36:21;25.50;99.90
13711;DHT22;6927;51.256;9.410;2023-07-24T14:38:47;23.90;99.90
13711;DHT22;6927;51.256;9.410;2023-07-24T14:41:13;22.40;99.90
13711;DHT22;6927;51.256;9.410;2023-07-24T14:43:40;20.90;99.90
13711;DHT22;6927;51.256;9.410;2023-07-24T14:46:06;20.00;99.90
13711;DHT22;6927;51.256;9.410;2023-07-24T14:48:32;19.30;99.90
13711;DHT22;6927;51.256;9.410;2023-07-24T14:50:57;18.70;99.90
13711;DHT22;6927;51.256;9.410;2023-07-24T14:53:23;18.10;99.90
13711;DHT22;6927;51.256;9.410;2023-07-24T14:55:49;17.50;99.90
13711;DHT22;6927;51.256;9.410;2023-07-24T14:58:14;17.10;99.90
13711;DHT22;6927;51.256;9.410;2023-07-24T15:00:40;16.90;99.90
13711;DHT22;6927;51.256;9.410;2023-07-24T15:03:05;16.70;99.90
13711;DHT22;6927;51.256;9.410;2023-07-24T15:05:31;16.50;99.90
13711;DHT22;6927;51.256;9.410;2023-07-24T15:07:57;16.60;99.90
13711;DHT22;6927;51.256;9.410;2023-07-24T15:10:23;16.80;99.90
13711;DHT22;6927;51.256;9.410;2023-07-24T15:12:48;17.10;99.90
13711;DHT22;6927;51.256;9.410;2023-07-24T15:15:14;17.50;99.90
13711;DHT22;6927;51.256;9.410;2023-07-24T15:17:39;17.80;99.90
13711;DHT22;6927;51.256;9.410;2023-07-24T15:20:06;18.00;99.90
13711;DHT22;6927;51.256;9.410;2023-07-24T15:22:33;18.20;99.90
13711;DHT22;6927;51.256;9.410;2023-07-24T15:24:58;18.50;99.90
13711;DHT22;6927;51.256;9.410;2023-07-24T15:27:24;18.80;99.90
13711;DHT22;6927;51.256;9.410;2023-07-24T15:29:50;19.00;99.90
13711;DHT22;6927;51.256;9.410;2023-07-24T15:32:15;19.30;99.90
13711;DHT22;6927;51.256;9.410;2023-07-24T15:34:42;19.50;99.90
13711;DHT22;6927;51.256;9.410;2023-07-24T15:37:08;19.80;99.90
13711;DHT22;6927;51.256;9.410;2023-07-24T15:39:35;19.90;99.90
13711;DHT22;6927;51.256;9.410;2023-07-24T15:42:01;20.10;99.90
13711;DHT22;6927;51.256;9.410;2023-07-24T15:44:26;20.30;99.90
13711;DHT22;6927;51.256;9.410;2023-07-24T15:46:52;20.50;99.90
13711;DHT22;6927;51.256;9.410;2023-07-24T15:49:17;20.60;99.90